Time;durP1;ratioP1;P1;durP2;ratioP2;P2;SDS_P1;SDS_P2;PMS_P1;PMS_P2;Temp;Humidity;BMP_temperature;BMP_pressure;BME280_temperature;BME280_humidity;BME280_pressure;Samples;Min_cycle;Max_cycle;Signal;HPM_P1;HPM_P2
2021/06/04 00:00:37;;;;;;;;;19.75;19.25;;;;;20.17;65.98;101600.28;5032066;28;51056;-47
2021/06/04 00:03:11;;;;;;;;;16.50;16.25;;;;;20.17;65.77;101602.91;5032674;28;53151;-48
2021/06/04 00:05:43;;;;;;;;;20.25;19.75;;;;;20.17;66.10;101607.28;5032052;28;50905;-48
2021/06/04 00:08:10;;;;;;;;;20.00;20.00;;;;;20.16;66.56;101594.97;5031615;28;51487;-48
2021/06/04 00:10:41;;;;;;;;;19.50;18.50;;;;;20.14;66.80;101597.59;5033033;28;51205;-47
2021/06/04 00:13:24;;;;;;;;;21.25;19.25;;;;;20.11;67.12;101608.09;5030601;28;51998;-49
2021/06/04 00:16:03;;;;;;;;;22.25;21.00;;;;;20.09;66.86;101616.84;5065297;28;51007;-47
2021/06/04 00:18:30;;;;;;;;;16.25;14.75;;;;;20.09;66.97;101623.00;5031407;28;51240;-49
2021/06/04 00:20:56;;;;;;;;;24.75;23.25;;;;;20.06;67.10;101623.84;5032891;28;51080;-48
2021/06/04 00:23:21;;;;;;;;;21.75;20.25;;;;;20.05;68.60;101629.09;5032317;28;50920;-45
2021/06/04 00:25:47;;;;;;;;;22.00;20.25;;;;;20.01;68.33;101637.84;5032679;28;51079;-48
2021/06/04 00:28:13;;;;;;;;;25.50;23.75;;;;;19.98;67.81;101643.91;5031842;28;51140;-45
2021/06/04 00:30:39;;;;;;;;;25.75;24.00;;;;;19.97;68.09;101642.13;5031252;28;51409;-47
2021/06/04 00:33:05;;;;;;;;;29.75;29.75;;;;;19.96;67.78;101634.19;5031803;28;51567;-50
2021/06/04 00:35:32;;;;;;;;;26.50;26.50;;;;;19.97;67.97;101636.84;5032589;28;50987;-49
2021/06/04 00:37:58;;;;;;;;;26.50;25.00;;;;;19.98;68.45;101641.28;5031229;28;51103;-49
2021/06/04 00:40:31;;;;;;;;;31.00;29.75;;;;;20.00;68.56;101644.84;5030166;28;51361;-49
2021/06/04 00:42:58;;;;;;;;;28.75;27.25;;;;;20.01;68.35;101637.84;5034510;28;52025;-49
2021/06/04 00:45:29;;;;;;;;;32.00;27.00;;;;;20.05;68.52;101650.19;5022666;28;51073;-48
2021/06/04 00:47:55;;;;;;;;;30.50;29.50;;;;;20.09;68.86;101648.50;5034394;28;51234;-51
2021/06/04 00:50:27;;;;;;;;;25.75;25.25;;;;;20.14;68.73;101652.09;5035162;28;51014;-49
2021/06/04 00:52:52;;;;;;;;;39.50;34.25;;;;;20.16;68.65;101647.72;5035090;28;51067;-47
2021/06/04 00:55:20;;;;;;;;;30.50;28.50;;;;;20.22;68.54;101666.28;5035569;28;51128;-49
2021/06/04 00:57:45;;;;;;;;;33.00;31.75;;;;;20.27;68.25;101672.53;5034596;28;50969;-50
2021/06/04 01:00:22;;;;;;;;;37.00;34.75;;;;;20.31;68.24;101687.53;5035019;28;50965;-49
2021/06/04 01:02:47;;;;;;;;;34.50;32.75;;;;;20.32;68.80;101723.59;5034924;28;51794;-45
2021/06/04 01:05:13;;;;;;;;;33.75;31.25;;;;;20.29;69.00;101739.34;5035790;28;50889;-45
2021/06/04 01:07:57;;;;;;;;;31.00;30.75;;;;;20.30;68.58;101730.56;5035467;28;51036;-47
2021/06/04 01:10:54;;;;;;;;;34.75;31.75;;;;;20.35;69.18;101706.03;5034905;28;51049;-48
2021/06/04 01:13:29;;;;;;;;;33.75;31.75;;;;;20.40;69.06;101684.16;5034215;28;52615;-46
2021/06/04 01:15:55;;;;;;;;;23.50;23.00;;;;;20.43;69.27;101693.84;5034988;28;50937;-48
2021/06/04 01:18:29;;;;;;;;;24.25;23.50;;;;;20.46;68.86;101689.50;5025072;28;51148;-46
2021/06/04 01:20:59;;;;;;;;;27.75;26.75;;;;;20.51;68.95;101686.06;5034030;28;50924;-46
2021/06/04 01:23:40;;;;;;;;;27.25;27.25;;;;;20.50;69.08;101669.34;5029801;28;51032;-45
2021/06/04 01:26:20;;;;;;;;;25.00;24.25;;;;;20.50;69.00;101674.63;5034788;28;50981;-45
2021/06/04 01:28:50;;;;;;;;;24.50;24.25;;;;;20.50;68.48;101676.38;5033036;28;51168;-48
2021/06/04 01:31:51;;;;;;;;;25.25;23.75;;;;;20.50;68.89;101669.34;5033749;28;50893;-50
2021/06/04 01:34:39;;;;;;;;;28.00;23.25;;;;;20.50;68.86;101666.72;5034819;28;51785;-46
2021/06/04 01:37:26;;;;;;;;;39.25;34.75;;;;;20.47;68.80;101658.75;5034672;28;51183;-48
2021/06/04 01:39:55;;;;;;;;;25.25;24.25;;;;;20.46;68.58;101673.69;5032872;28;51055;-47
2021/06/04 01:42:31;;;;;;;;;22.25;22.25;;;;;20.44;69.16;101669.25;5034864;28;51044;-47
2021/06/04 01:45:03;;;;;;;;;22.25;20.75;;;;;20.44;69.00;101663.97;5034379;28;51378;-45
2021/06/04 01:47:35;;;;;;;;;22.50;20.75;;;;;20.42;69.40;101657.78;5034116;28;51096;-46
2021/06/04 01:50:09;;;;;;;;;27.50;24.75;;;;;20.41;68.84;101656.03;5032832;28;51302;-48
2021/06/04 01:52:37;;;;;;;;;25.25;25.00;;;;;20.40;68.96;101654.22;5034261;28;51226;-47
2021/06/04 01:55:18;;;;;;;;;29.25;28.50;;;;;20.37;69.31;101646.28;5033271;28;51110;-49
2021/06/04 01:57:51;;;;;;;;;24.75;23.50;;;;;20.31;69.11;101639.16;5033070;28;50997;-46
2021/06/04 02:00:31;;;;;;;;;24.75;23.50;;;;;20.24;69.30;101648.72;5034753;28;51011;-49
2021/06/04 02:02:58;;;;;;;;;26.25;23.75;;;;;20.20;68.99;101657.44;5034520;28;51305;-46
2021/06/04 02:05:29;;;;;;;;;28.75;25.50;;;;;20.16;68.89;101653.88;5034312;28;51066;-48
2021/06/04 02:07:55;;;;;;;;;24.75;22.50;;;;;20.13;68.98;101652.97;5033378;28;51271;-48
2021/06/04 02:10:37;;;;;;;;;28.00;26.75;;;;;20.07;69.04;101636.16;5034161;28;51099;-49
2021/06/04 02:13:06;;;;;;;;;24.75;24.00;;;;;20.02;69.03;101624.66;5034452;28;51413;-48
2021/06/04 02:15:36;;;;;;;;;25.75;24.75;;;;;19.98;68.73;101609.66;5033070;28;52200;-50
2021/06/04 02:18:24;;;;;;;;;25.00;25.00;;;;;19.92;68.89;101623.59;5032622;28;51190;-47
2021/06/04 02:20:59;;;;;;;;;27.25;26.00;;;;;19.88;68.75;101637.59;5032851;28;50998;-51
2021/06/04 02:23:27;;;;;;;;;24.50;24.25;;;;;19.84;68.66;101632.22;5034033;28;51594;-48
2021/06/04 02:26:21;;;;;;;;;22.75;21.75;;;;;19.80;68.80;101634.81;5033904;28;51828;-49
2021/06/04 02:28:54;;;;;;;;;26.00;25.00;;;;;19.81;69.05;101647.13;5033344;28;50954;-49
2021/06/04 02:31:43;;;;;;;;;25.75;25.75;;;;;19.81;68.71;101662.94;5031897;28;51214;-51
2021/06/04 02:34:17;;;;;;;;;27.00;25.25;;;;;19.83;68.16;101691.06;5012531;28;51263;-50
2021/06/04 02:37:19;;;;;;;;;26.50;25.75;;;;;19.81;69.05;101715.66;5032502;28;51879;-49
2021/06/04 02:40:16;;;;;;;;;25.00;24.50;;;;;19.83;71.16;101725.34;5009374;28;51096;-51
2021/06/04 02:42:51;;;;;;;;;27.75;25.75;;;;;19.71;70.32;101713.72;5028313;28;51290;-49
2021/06/04 02:45:36;;;;;;;;;27.50;26.25;;;;;19.68;70.53;101695.19;5032900;28;50874;-51
2021/06/04 02:48:08;;;;;;;;;25.75;25.00;;;;;19.73;70.12;101685.63;5032298;28;51115;-53
2021/06/04 02:50:42;;;;;;;;;28.75;28.25;;;;;19.76;69.62;101680.44;5032631;28;51211;-47
2021/06/04 02:53:26;;;;;;;;;26.75;26.25;;;;;19.72;70.30;101697.03;5032747;28;51151;-49
2021/06/04 02:56:16;;;;;;;;;28.50;26.00;;;;;19.68;70.50;101708.38;5032838;28;51365;-47
2021/06/04 02:58:46;;;;;;;;;28.00;27.50;;;;;19.69;69.62;101752.31;5031494;28;51770;-47
2021/06/04 03:01:12;;;;;;;;;27.50;27.00;;;;;19.60;70.95;101779.38;5033475;28;51079;-48
2021/06/04 03:03:45;;;;;;;;;29.50;27.50;;;;;19.53;71.73;101761.66;5032983;28;51219;-49
2021/06/04 03:06:10;;;;;;;;;26.50;23.00;;;;;19.55;71.68;101750.28;5033469;28;51154;-49
2021/06/04 03:08:36;;;;;;;;;23.25;22.00;;;;;19.52;75.37;101713.38;5032140;28;51902;-48
2021/06/04 03:11:05;;;;;;;;;27.50;26.75;;;;;19.23;80.88;101632.00;5033194;28;50992;-50
2021/06/04 03:13:32;;;;;;;;;25.50;22.25;;;;;-147.17;100.00;59696.56;5066621;28;50479;-46
2021/06/04 03:16:05;;;;;;;;;28.50;28.25;;;;;-147.17;100.00;59696.56;5070485;28;11532;-46
2021/06/04 03:18:35;;;;;;;;;26.50;26.50;;;;;-147.17;100.00;59696.56;5070436;28;10953;-47
2021/06/04 03:21:06;;;;;;;;;27.50;26.25;;;;;-147.17;100.00;59696.56;5071397;28;10010;-46
2021/06/04 03:23:40;;;;;;;;;26.25;25.50;;;;;-147.17;100.00;59696.56;5073796;28;10748;-50
2021/06/04 03:26:09;;;;;;;;;23.00;22.75;;;;;-147.17;100.00;59696.56;5071266;28;9822;-46
2021/06/04 03:28:36;;;;;;;;;25.75;22.25;;;;;-147.17;100.00;59696.56;5070414;28;9747;-47
2021/06/04 03:31:03;;;;;;;;;24.00;23.75;;;;;-147.17;100.00;59696.56;5071248;28;9769;-44
2021/06/04 03:33:33;;;;;;;;;26.50;24.50;;;;;-147.17;100.00;59696.56;5068972;28;9914;-47
2021/06/04 03:36:07;;;;;;;;;22.75;21.25;;;;;-147.17;100.00;59696.56;5070489;28;9892;-46
2021/06/04 03:38:34;;;;;;;;;26.00;25.25;;;;;-147.17;100.00;59696.56;5069833;28;9910;-46
2021/06/04 03:41:00;;;;;;;;;27.25;27.00;;;;;-147.17;100.00;59696.56;5071150;28;9741;-45
2021/06/04 03:43:27;;;;;;;;;29.25;27.75;;;;;-147.17;100.00;59696.56;5070320;28;10103;-47
2021/06/04 03:45:53;;;;;;;;;29.00;28.50;;;;;-147.17;100.00;59696.56;5071502;28;8876;-48
2021/06/04 03:48:23;;;;;;;;;30.25;29.50;;;;;-147.17;100.00;59696.56;5041813;28;51046;-46
2021/06/04 03:50:52;;;;;;;;;29.00;27.25;;;;;-147.17;100.00;59696.56;5031844;28;51160;-47
2021/06/04 03:53:19;;;;;;;;;35.50;31.75;;;;;-147.17;100.00;59696.56;5032104;28;51196;-48
2021/06/04 03:55:44;;;;;;;;;33.25;32.00;;;;;-147.17;100.00;59696.56;5031914;28;51283;-46
2021/06/04 03:58:11;;;;;;;;;33.25;31.50;;;;;-147.17;100.00;59696.56;5031191;28;51351;-50
2021/06/04 04:00:47;;;;;;;;;27.00;27.00;;;;;-147.17;100.00;59696.56;5064866;28;51025;-49
2021/06/04 04:03:14;;;;;;;;;33.00;31.50;;;;;-147.17;100.00;59696.56;5031610;28;51229;-47
2021/06/04 04:05:40;;;;;;;;;34.00;30.25;;;;;-147.17;100.00;59696.56;5030788;28;51004;-50
2021/06/04 04:08:07;;;;;;;;;35.25;32.25;;;;;-147.17;100.00;59696.56;5032221;28;51203;-47
2021/06/04 04:10:32;;;;;;;;;31.75;30.50;;;;;-147.17;100.00;59696.56;5031664;28;50960;-50
2021/06/04 04:13:01;;;;;;;;;34.75;31.75;;;;;-147.17;100.00;59696.56;5031733;28;51192;-49
2021/06/04 04:15:27;;;;;;;;;31.75;29.75;;;;;-147.17;100.00;59696.56;5030659;28;51155;-50
2021/06/04 04:17:58;;;;;;;;;29.25;28.25;;;;;-147.17;100.00;59696.56;5031804;28;50950;-51
2021/06/04 04:20:27;;;;;;;;;34.50;32.00;;;;;-147.17;100.00;59696.56;5032032;28;51077;-48
2021/06/04 04:22:54;;;;;;;;;31.75;29.75;;;;;-147.17;100.00;59696.56;5029843;28;51337;-50
2021/06/04 04:25:20;;;;;;;;;34.00;32.00;;;;;-147.17;100.00;59696.56;5031193;28;51250;-52
2021/06/04 04:27:46;;;;;;;;;31.50;29.50;;;;;-147.17;100.00;59696.56;5031871;28;51201;-50
2021/06/04 04:30:14;;;;;;;;;30.00;28.50;;;;;-147.17;100.00;59696.56;5030851;28;51042;-47
2021/06/04 04:32:39;;;;;;;;;29.00;27.50;;;;;-147.17;100.00;59696.56;5029042;28;51184;-46
2021/06/04 04:35:08;;;;;;;;;27.25;27.25;;;;;-147.17;100.00;59696.56;5031479;28;51132;-47
2021/06/04 04:37:34;;;;;;;;;28.00;26.25;;;;;-147.17;100.00;59696.56;5031674;28;51258;-48
2021/06/04 04:40:00;;;;;;;;;25.25;24.25;;;;;-147.17;100.00;59696.56;5031530;28;51101;-47
2021/06/04 04:42:26;;;;;;;;;24.00;24.00;;;;;-147.17;100.00;59696.56;5031753;28;51258;-45
2021/06/04 04:44:52;;;;;;;;;23.25;21.75;;;;;-147.17;100.00;59696.56;5029722;28;50997;-50
2021/06/04 04:47:22;;;;;;;;;25.25;23.75;;;;;-147.17;100.00;59696.56;5031455;28;52145;-49
2021/06/04 04:49:47;;;;;;;;;26.75;26.25;;;;;-147.17;100.00;59696.56;5029207;28;51120;-48
2021/06/04 04:52:14;;;;;;;;;24.50;22.50;;;;;-147.17;100.00;59696.56;5030824;28;50920;-47
2021/06/04 04:54:46;;;;;;;;;22.25;22.00;;;;;-147.17;100.00;59696.56;5031578;28;51000;-47
2021/06/04 04:57:13;;;;;;;;;25.00;23.25;;;;;-147.17;100.00;59696.56;5030721;28;51259;-47
2021/06/04 04:59:39;;;;;;;;;23.50;22.50;;;;;-147.17;100.00;59696.56;5031498;28;51034;-45
2021/06/04 05:02:05;;;;;;;;;21.25;19.75;;;;;-147.17;100.00;59696.56;5030432;28;51177;-48
2021/06/04 05:04:32;;;;;;;;;20.00;19.00;;;;;-147.17;100.00;59696.56;5031694;28;51175;-47
2021/06/04 05:06:57;;;;;;;;;21.25;19.25;;;;;-147.17;100.00;59696.56;5029185;28;51822;-45
2021/06/04 05:09:23;;;;;;;;;20.00;19.50;;;;;-147.17;100.00;59696.56;5031237;28;51126;-49
2021/06/04 05:11:48;;;;;;;;;18.00;17.50;;;;;-147.17;100.00;59696.56;5031224;28;51282;-47
2021/06/04 05:14:15;;;;;;;;;21.25;20.00;;;;;-147.17;100.00;59696.56;5030137;28;51715;-49
2021/06/04 05:16:40;;;;;;;;;18.25;17.00;;;;;-147.17;100.00;59696.56;5030460;28;52855;-50
2021/06/04 05:19:06;;;;;;;;;23.50;22.75;;;;;-147.17;100.00;59696.56;5030663;28;50957;-47
2021/06/04 05:21:32;;;;;;;;;18.50;18.00;;;;;-147.17;100.00;59696.56;5028716;28;51122;-46
2021/06/04 05:23:58;;;;;;;;;20.00;19.25;;;;;-147.17;100.00;59696.56;5023284;28;51088;-47
2021/06/04 05:26:24;;;;;;;;;20.25;18.50;;;;;-147.17;100.00;59696.56;5031513;28;52701;-49
2021/06/04 05:28:50;;;;;;;;;20.67;17.33;;;;;-147.17;100.00;59696.56;5031828;28;51024;-49
2021/06/04 05:31:16;;;;;;;;;18.50;18.50;;;;;-147.17;100.00;59696.56;5034230;28;51136;-50
2021/06/04 05:33:43;;;;;;;;;17.00;16.33;;;;;-147.17;100.00;59696.56;5032490;28;50952;-48
2021/06/04 05:36:12;;;;;;;;;14.33;14.33;;;;;-147.17;100.00;59696.56;5029780;28;51521;-48
2021/06/04 05:38:38;;;;;;;;;10.33;10.00;;;;;-147.17;100.00;59696.56;5030975;28;50965;-48
2021/06/04 05:41:04;;;;;;;;;11.67;11.67;;;;;-147.17;100.00;59696.56;5034240;28;51005;-48
2021/06/04 05:43:33;;;;;;;;;16.00;15.50;;;;;-147.17;100.00;59696.56;5050097;28;51069;-50
2021/06/04 05:46:01;;;;;;;;;15.00;13.67;;;;;-147.17;100.00;59696.56;5034250;28;51876;-48
2021/06/04 05:48:27;;;;;;;;;8.67;8.33;;;;;-147.17;100.00;59696.56;5031107;28;51183;-49
2021/06/04 05:50:57;;;;;;;;;8.33;7.33;;;;;-147.17;100.00;59696.56;5031514;28;51049;-49
2021/06/04 05:53:26;;;;;;;;;8.67;6.67;;;;;-147.17;100.00;59696.56;5032688;28;51900;-50
2021/06/04 05:55:53;;;;;;;;;7.33;7.33;;;;;-147.17;100.00;59696.56;5039075;28;52631;-48
2021/06/04 05:58:20;;;;;;;;;4.00;4.00;;;;;-147.17;100.00;59696.56;5030498;28;51164;-51
2021/06/04 06:00:49;;;;;;;;;6.33;6.33;;;;;-147.17;100.00;59696.56;5033509;28;51363;-48
2021/06/04 06:03:18;;;;;;;;;9.67;7.00;;;;;-147.17;100.00;59696.56;5034144;28;51531;-50
2021/06/04 06:05:44;;;;;;;;;4.00;4.00;;;;;-147.17;100.00;59696.56;5033351;28;51205;-48
2021/06/04 06:08:10;;;;;;;;;6.33;5.00;;;;;-147.17;100.00;59696.56;5033967;28;51226;-48
2021/06/04 06:10:36;;;;;;;;;6.00;5.67;;;;;-147.17;100.00;59696.56;5034392;28;51381;-47
2021/06/04 06:13:02;;;;;;;;;5.67;5.00;;;;;-147.17;100.00;59696.56;5031363;28;51061;-49
2021/06/04 06:15:28;;;;;;;;;5.00;5.00;;;;;-147.17;100.00;59696.56;5032320;28;51142;-48
2021/06/04 06:17:54;;;;;;;;;6.00;5.00;;;;;-147.17;100.00;59696.56;5032004;28;51218;-46
2021/06/04 06:20:24;;;;;;;;;4.67;4.00;;;;;-147.17;100.00;59696.56;5031432;28;51184;-49
2021/06/04 06:22:51;;;;;;;;;4.00;4.00;;;;;-147.17;100.00;59696.56;5029948;28;51433;-45
2021/06/04 06:25:21;;;;;;;;;5.00;4.33;;;;;-147.17;100.00;59696.56;5034264;28;52039;-46
2021/06/04 06:27:46;;;;;;;;;3.67;3.67;;;;;-147.17;100.00;59696.56;5032267;28;51119;-48
2021/06/04 06:30:18;;;;;;;;;4.33;4.00;;;;;-147.17;100.00;59696.56;5028526;28;51194;-48
2021/06/04 06:32:43;;;;;;;;;9.00;8.00;;;;;-147.17;100.00;59696.56;5033508;28;51568;-47
2021/06/04 06:35:10;;;;;;;;;4.00;4.00;;;;;-147.17;100.00;59696.56;5032851;28;51892;-48
2021/06/04 06:37:36;;;;;;;;;2.00;2.00;;;;;-147.17;100.00;59696.56;5033426;28;50937;-50
2021/06/04 06:40:03;;;;;;;;;3.00;3.00;;;;;-147.17;100.00;59696.56;5033065;28;50948;-46
2021/06/04 06:42:29;;;;;;;;;5.00;5.00;;;;;-147.17;100.00;59696.56;5033588;28;51359;-49
2021/06/04 06:44:54;;;;;;;;;5.00;4.33;;;;;-147.17;100.00;59696.56;5033373;28;52784;-47
2021/06/04 06:47:19;;;;;;;;;4.67;4.67;;;;;-147.17;100.00;59696.56;5033029;28;50922;-47
2021/06/04 06:49:45;;;;;;;;;4.33;4.33;;;;;-147.17;100.00;59696.56;5032249;28;51061;-49
2021/06/04 06:52:10;;;;;;;;;6.00;4.33;;;;;-147.17;100.00;59696.56;5033514;28;50952;-49
2021/06/04 06:54:39;;;;;;;;;4.67;4.33;;;;;-147.17;100.00;59696.56;5032954;28;52853;-51
2021/06/04 06:57:05;;;;;;;;;2.33;2.33;;;;;-147.17;100.00;59696.56;5033210;28;51068;-49
2021/06/04 06:59:31;;;;;;;;;4.67;4.67;;;;;-147.17;100.00;59696.56;5033201;28;51181;-46
2021/06/04 07:01:58;;;;;;;;;4.00;4.00;;;;;-147.17;100.00;59696.56;5033201;28;50834;-48
2021/06/04 07:04:23;;;;;;;;;5.33;4.33;;;;;-147.17;100.00;59696.56;5031781;28;50925;-46
2021/06/04 07:06:49;;;;;;;;;6.33;5.67;;;;;-147.17;100.00;59696.56;5032831;28;50907;-51
2021/06/04 07:09:16;;;;;;;;;4.00;4.00;;;;;-147.17;100.00;59696.56;5032702;28;51031;-47
2021/06/04 07:11:49;;;;;;;;;4.67;4.00;;;;;-147.17;100.00;59696.56;5038821;28;51166;-46
2021/06/04 07:14:16;;;;;;;;;6.00;6.00;;;;;-147.17;100.00;59696.56;5025188;28;51764;-48
2021/06/04 07:16:41;;;;;;;;;6.67;6.67;;;;;-147.17;100.00;59696.56;5032680;28;50969;-46
2021/06/04 07:19:06;;;;;;;;;3.00;3.00;;;;;-147.17;100.00;59696.56;5032831;28;51020;-46
2021/06/04 07:21:34;;;;;;;;;2.33;2.33;;;;;-147.17;100.00;59696.56;5035109;28;51309;-50
2021/06/04 07:24:00;;;;;;;;;2.00;2.00;;;;;-147.17;100.00;59696.56;5039402;28;52268;-46
2021/06/04 07:26:27;;;;;;;;;2.00;2.00;;;;;-147.17;100.00;59696.56;5032398;28;50955;-50
2021/06/04 07:28:55;;;;;;;;;2.67;2.67;;;;;-147.17;100.00;59696.56;5028930;28;51255;-51
2021/06/04 07:31:22;;;;;;;;;2.00;2.00;;;;;-147.17;100.00;59696.56;5031318;28;51297;-48
2021/06/04 07:33:54;;;;;;;;;1.00;1.00;;;;;-147.17;100.00;59696.56;5032454;28;51315;-51
2021/06/04 07:36:27;;;;;;;;;2.00;1.00;;;;;-147.17;100.00;59696.56;5032494;28;51056;-50
2021/06/04 07:38:53;;;;;;;;;3.00;3.00;;;;;-147.17;100.00;59696.56;5031659;28;51044;-49
2021/06/04 07:41:19;;;;;;;;;3.00;3.00;;;;;-147.17;100.00;59696.56;5032920;28;51306;-51
2021/06/04 07:43:45;;;;;;;;;2.67;2.33;;;;;-147.17;100.00;59696.56;5026984;28;51078;-48
2021/06/04 07:46:14;;;;;;;;;3.00;2.67;;;;;-147.17;100.00;59696.56;5032335;28;50998;-46
2021/06/04 07:48:39;;;;;;;;;3.00;3.00;;;;;-147.17;100.00;59696.56;5031417;28;51024;-51
2021/06/04 07:51:09;;;;;;;;;2.00;2.00;;;;;-147.17;100.00;59696.56;5028774;28;51293;-49
2021/06/04 07:53:38;;;;;;;;;2.00;1.33;;;;;-147.17;100.00;59696.56;5029693;28;52752;-50
2021/06/04 07:56:05;;;;;;;;;1.00;1.00;;;;;-147.17;100.00;59696.56;5030377;28;51074;-52
2021/06/04 07:58:30;;;;;;;;;2.67;2.00;;;;;-147.17;100.00;59696.56;5029957;28;51154;-51
2021/06/04 08:00:56;;;;;;;;;4.67;4.00;;;;;-147.17;100.00;59696.56;5029511;28;50901;-50
2021/06/04 08:03:25;;;;;;;;;1.33;1.33;;;;;-147.17;100.00;59696.56;5029905;28;52997;-47
2021/06/04 08:05:51;;;;;;;;;3.00;3.00;;;;;-147.17;100.00;59696.56;5028560;28;51462;-51
2021/06/04 08:08:18;;;;;;;;;3.00;3.00;;;;;-147.17;100.00;59696.56;5043983;28;51164;-49
2021/06/04 08:10:45;;;;;;;;;3.00;3.00;;;;;-147.17;100.00;59696.56;5030136;28;51283;-50
2021/06/04 08:13:15;;;;;;;;;5.00;4.00;;;;;-147.17;100.00;59696.56;5030862;28;51061;-51
2021/06/04 08:16:04;;;;;;;;;5.00;4.00;;;;;-147.17;100.00;59696.56;5031095;28;51191;-46
2021/06/04 08:18:33;;;;;;;;;5.33;5.33;;;;;-147.17;100.00;59696.56;5024747;28;51111;-49
2021/06/04 08:20:59;;;;;;;;;3.00;3.00;;;;;-147.17;100.00;59696.56;5031169;28;50919;-47
2021/06/04 08:23:28;;;;;;;;;2.33;2.33;;;;;-147.17;100.00;59696.56;5030820;28;51320;-50
2021/06/04 08:25:57;;;;;;;;;3.67;3.33;;;;;-147.17;100.00;59696.56;5031141;28;51036;-50
2021/06/04 08:28:23;;;;;;;;;3.67;3.67;;;;;-147.17;100.00;59696.56;5031256;28;51005;-50
2021/06/04 08:30:49;;;;;;;;;2.67;2.67;;;;;-147.17;100.00;59696.56;5031192;28;51174;-48
2021/06/04 08:33:20;;;;;;;;;2.00;2.00;;;;;-147.17;100.00;59696.56;5029407;28;52492;-49
2021/06/04 08:35:46;;;;;;;;;4.00;3.00;;;;;-147.17;100.00;59696.56;5029304;28;51524;-49
2021/06/04 08:38:11;;;;;;;;;3.00;3.00;;;;;-147.17;100.00;59696.56;5026907;28;51210;-52
2021/06/04 08:40:37;;;;;;;;;5.33;4.67;;;;;-147.17;100.00;59696.56;5029497;28;51032;-49
2021/06/04 08:43:14;;;;;;;;;5.00;5.00;;;;;-147.17;100.00;59696.56;5029336;28;53272;-49
2021/06/04 08:45:51;;;;;;;;;3.33;3.00;;;;;-147.17;100.00;59696.56;5025919;28;51086;-45
2021/06/04 08:48:36;;;;;;;;;3.67;3.67;;;;;-147.17;100.00;59696.56;5026243;28;52311;-47
2021/06/04 08:51:33;;;;;;;;;4.00;4.00;;;;;-147.17;100.00;59696.56;5025322;28;51256;-48
2021/06/04 08:54:31;;;;;;;;;7.33;7.33;;;;;-147.17;100.00;59696.56;5025504;28;51123;-44
2021/06/04 08:56:57;;;;;;;;;2.00;2.00;;;;;-147.17;100.00;59696.56;5029351;28;50946;-46
2021/06/04 08:59:24;;;;;;;;;2.67;2.67;;;;;-147.17;100.00;59696.56;5027911;28;51013;-48
2021/06/04 09:01:58;;;;;;;;;2.00;2.00;;;;;-147.17;100.00;59696.56;5029614;28;51221;-48
2021/06/04 09:04:41;;;;;;;;;3.67;2.67;;;;;-147.17;100.00;59696.56;5031019;28;54353;-50
2021/06/04 09:07:15;;;;;;;;;4.00;4.00;;;;;-147.17;100.00;59696.56;5032971;28;51010;-48
2021/06/04 09:10:02;;;;;;;;;2.00;2.00;;;;;-147.17;100.00;59696.56;5027429;28;51171;-48
2021/06/04 09:12:51;;;;;;;;;2.00;2.00;;;;;-147.17;100.00;59696.56;5030893;28;51059;-50
2021/06/04 09:15:22;;;;;;;;;6.00;6.00;;;;;-147.17;100.00;59696.56;5032359;28;51167;-48
2021/06/04 09:18:01;;;;;;;;;2.67;2.67;;;;;-147.17;100.00;59696.56;5032475;28;51132;-52
2021/06/04 09:20:57;;;;;;;;;1.67;1.67;;;;;-147.17;100.00;59696.56;5032668;28;51023;-49
2021/06/04 09:23:35;;;;;;;;;3.33;2.00;;;;;-147.17;100.00;59696.56;5033826;28;51004;-51
2021/06/04 09:26:03;;;;;;;;;3.00;3.00;;;;;-147.17;100.00;59696.56;5033614;28;51384;-49
2021/06/04 09:28:38;;;;;;;;;3.33;3.33;;;;;-147.17;100.00;59696.56;5032151;28;51255;-50
2021/06/04 09:31:43;;;;;;;;;3.00;3.00;;;;;-147.17;100.00;59696.56;5026748;28;51007;-45
2021/06/04 09:34:13;;;;;;;;;4.00;4.00;;;;;-147.17;100.00;59696.56;5032794;28;51105;-49
2021/06/04 09:36:50;;;;;;;;;4.00;4.00;;;;;-147.17;100.00;59696.56;5032880;28;52603;-50
2021/06/04 09:39:28;;;;;;;;;3.67;3.00;;;;;-147.17;100.00;59696.56;5033202;28;51074;-52
2021/06/04 09:42:10;;;;;;;;;4.67;4.67;;;;;-147.17;100.00;59696.56;5033826;28;50938;-47
2021/06/04 09:44:49;;;;;;;;;5.00;5.00;;;;;-147.17;100.00;59696.56;5032263;28;51278;-46
2021/06/04 09:47:25;;;;;;;;;5.00;5.00;;;;;-147.17;100.00;59696.56;5033515;28;52369;-49
2021/06/04 09:49:52;;;;;;;;;7.00;7.00;;;;;-147.17;100.00;59696.56;5033816;28;51071;-48
2021/06/04 09:52:32;;;;;;;;;9.00;9.00;;;;;-147.17;100.00;59696.56;5033772;28;51058;-49
2021/06/04 09:55:13;;;;;;;;;8.67;7.33;;;;;-147.17;100.00;59696.56;5033607;28;50916;-47
2021/06/04 09:57:57;;;;;;;;;7.00;7.00;;;;;-147.17;100.00;59696.56;5033096;28;51685;-50
2021/06/04 10:00:46;;;;;;;;;7.67;7.00;;;;;-147.17;100.00;59696.56;5031913;28;51210;-51
2021/06/04 10:03:35;;;;;;;;;9.67;7.33;;;;;-147.17;100.00;59696.56;5027756;28;51096;-45
2021/06/04 10:06:10;;;;;;;;;6.00;6.00;;;;;-147.17;100.00;59696.56;5022539;28;50980;-49
2021/06/04 10:08:45;;;;;;;;;5.67;5.33;;;;;-147.17;100.00;59696.56;5033028;28;52763;-47
2021/06/04 10:11:25;;;;;;;;;7.33;7.33;;;;;-147.17;100.00;59696.56;5032791;28;51116;-47
2021/06/04 10:13:54;;;;;;;;;5.00;5.00;;;;;-147.17;100.00;59696.56;5032647;28;51090;-46
2021/06/04 10:16:28;;;;;;;;;6.00;6.00;;;;;-147.17;100.00;59696.56;5032711;28;51211;-52
2021/06/04 10:18:54;;;;;;;;;10.33;9.67;;;;;-147.17;100.00;59696.56;5032642;28;52066;-47
2021/06/04 10:21:33;;;;;;;;;7.00;6.33;;;;;-147.17;100.00;59696.56;5033189;28;51244;-50
2021/06/04 10:24:01;;;;;;;;;11.00;7.67;;;;;-147.17;100.00;59696.56;5032360;28;51170;-51
2021/06/04 10:26:33;;;;;;;;;10.33;10.33;;;;;-147.17;100.00;59696.56;5032224;28;51036;-49
2021/06/04 10:29:07;;;;;;;;;6.33;5.33;;;;;-147.17;100.00;59696.56;5032598;28;52309;-47
2021/06/04 10:31:46;;;;;;;;;4.33;4.33;;;;;-147.17;100.00;59696.56;5023490;28;51111;-48
2021/06/04 10:34:20;;;;;;;;;4.00;4.00;;;;;-147.17;100.00;59696.56;5032209;28;50981;-46
2021/06/04 10:36:53;;;;;;;;;3.00;3.00;;;;;-147.17;100.00;59696.56;5026590;28;51405;-47
2021/06/04 10:39:30;;;;;;;;;3.67;3.00;;;;;-147.17;100.00;59696.56;5032064;28;51892;-51
2021/06/04 10:42:02;;;;;;;;;2.33;2.33;;;;;-147.17;100.00;59696.56;5032490;28;50986;-47
2021/06/04 10:44:52;;;;;;;;;3.33;3.33;;;;;-147.17;100.00;59696.56;5029449;28;51075;-49
2021/06/04 10:47:23;;;;;;;;;3.67;3.67;;;;;-147.17;100.00;59696.56;5031672;28;50958;-48
2021/06/04 10:50:01;;;;;;;;;6.33;4.33;;;;;-147.17;100.00;59696.56;5032092;28;51553;-46
2021/06/04 10:52:42;;;;;;;;;6.00;6.00;;;;;-147.17;100.00;59696.56;5026293;28;51183;-47
2021/06/04 10:55:17;;;;;;;;;5.00;5.00;;;;;-147.17;100.00;59696.56;5028014;28;51215;-48
2021/06/04 10:57:57;;;;;;;;;4.67;4.67;;;;;-147.17;100.00;59696.56;5028252;28;51318;-47
2021/06/04 11:00:27;;;;;;;;;4.67;4.67;;;;;-147.17;100.00;59696.56;5030345;28;51270;-46
2021/06/04 11:03:25;;;;;;;;;5.33;5.33;;;;;-147.17;100.00;59696.56;5028961;28;51192;-50
2021/06/04 11:06:26;;;;;;;;;5.00;5.00;;;;;-147.17;100.00;59696.56;5033006;28;51033;-49
2021/06/04 11:09:23;;;;;;;;;4.00;4.00;;;;;-147.17;100.00;59696.56;5018644;28;50980;-48
2021/06/04 11:12:36;;;;;;;;;5.00;5.00;;;;;-147.17;100.00;59696.56;5031791;28;52609;-49
2021/06/04 11:15:11;;;;;;;;;7.00;6.67;;;;;-147.17;100.00;59696.56;4982520;28;51276;-51
2021/06/04 11:17:45;;;;;;;;;4.00;4.00;;;;;-147.17;100.00;59696.56;4990046;28;51244;-49
2021/06/04 11:20:19;;;;;;;;;6.33;6.33;;;;;-147.17;100.00;59696.56;5014326;28;51170;-50
2021/06/04 11:23:02;;;;;;;;;8.33;8.33;;;;;-147.17;100.00;59696.56;5030899;28;52879;-48
2021/06/04 11:25:33;;;;;;;;;6.00;5.33;;;;;-147.17;100.00;59696.56;5030470;28;51112;-48
2021/06/04 11:28:06;;;;;;;;;6.00;6.00;;;;;-147.17;100.00;59696.56;5031477;28;51124;-48